sensor_id;sensor_type;location;lat;lon;timestamp;pressure;altitude;pressure_sealevel;temperature;humidity
59757;BME280;45631;51.962;5.974;2023-05-20T00:00:01;102316.41;;;12.02;100.00
59757;BME280;45631;51.962;5.974;2023-05-20T00:02:29;102316.63;;;11.97;100.00
59757;BME280;45631;51.962;5.974;2023-05-20T00:04:59;102313.31;;;11.92;100.00
59757;BME280;45631;51.962;5.974;2023-05-20T00:07:27;102307.41;;;11.87;100.00
59757;BME280;45631;51.962;5.974;2023-05-20T00:09:56;102313.47;;;11.89;100.00
59757;BME280;45631;51.962;5.974;2023-05-20T00:12:24;102310.91;;;11.88;100.00
59757;BME280;45631;51.962;5.974;2023-05-20T00:14:52;102304.28;;;11.79;100.00
59757;BME280;45631;51.962;5.974;2023-05-20T00:17:21;102306.75;;;11.82;100.00
59757;BME280;45631;51.962;5.974;2023-05-20T00:19:51;102307.00;;;11.77;100.00
59757;BME280;45631;51.962;5.974;2023-05-20T00:22:21;102311.63;;;11.72;100.00
59757;BME280;45631;51.962;5.974;2023-05-20T00:24:49;102308.06;;;11.73;100.00
59757;BME280;45631;51.962;5.974;2023-05-20T00:27:17;102309.28;;;11.66;100.00
59757;BME280;45631;51.962;5.974;2023-05-20T00:29:46;102309.34;;;11.64;100.00
59757;BME280;45631;51.962;5.974;2023-05-20T00:32:14;102310.78;;;11.72;100.00
59757;BME280;45631;51.962;5.974;2023-05-20T00:34:42;102303.13;;;11.65;100.00
59757;BME280;45631;51.962;5.974;2023-05-20T00:37:11;102304.13;;;11.63;100.00
59757;BME280;45631;51.962;5.974;2023-05-20T00:39:40;102302.53;;;11.60;100.00
59757;BME280;45631;51.962;5.974;2023-05-20T00:42:08;102302.53;;;11.60;100.00
59757;BME280;45631;51.962;5.974;2023-05-20T00:44:36;102303.38;;;11.61;100.00
59757;BME280;45631;51.962;5.974;2023-05-20T00:47:04;102309.34;;;11.64;100.00
59757;BME280;45631;51.962;5.974;2023-05-20T00:49:33;102303.03;;;11.69;100.00
59757;BME280;45631;51.962;5.974;2023-05-20T00:52:01;102305.94;;;11.62;100.00
59757;BME280;45631;51.962;5.974;2023-05-20T00:54:32;102303.22;;;11.64;100.00
59757;BME280;45631;51.962;5.974;2023-05-20T00:57:02;102298.09;;;11.61;100.00
59757;BME280;45631;51.962;5.974;2023-05-20T00:59:36;102292.75;;;11.62;100.00
59757;BME280;45631;51.962;5.974;2023-05-20T01:02:04;102299.09;;;11.58;100.00
59757;BME280;45631;51.962;5.974;2023-05-20T01:04:33;102291.34;;;11.55;100.00
59757;BME280;45631;51.962;5.974;2023-05-20T01:07:02;102289.47;;;11.57;100.00
59757;BME280;45631;51.962;5.974;2023-05-20T01:09:31;102287.78;;;11.56;100.00
59757;BME280;45631;51.962;5.974;2023-05-20T01:12:04;102292.09;;;11.57;100.00
59757;BME280;45631;51.962;5.974;2023-05-20T01:14:40;102286.13;;;11.54;100.00
59757;BME280;45631;51.962;5.974;2023-05-20T01:17:11;102292.09;;;11.57;100.00
59757;BME280;45631;51.962;5.974;2023-05-20T01:19:44;102282.56;;;11.55;100.00
59757;BME280;45631;51.962;5.974;2023-05-20T01:22:13;102283.59;;;11.52;100.00
59757;BME280;45631;51.962;5.974;2023-05-20T01:24:45;102291.25;;;11.57;100.00
59757;BME280;45631;51.962;5.974;2023-05-20T01:27:15;102289.13;;;11.46;100.00
59757;BME280;45631;51.962;5.974;2023-05-20T01:29:46;102278.16;;;11.55;100.00
59757;BME280;45631;51.962;5.974;2023-05-20T01:32:21;102281.13;;;11.47;100.00
59757;BME280;45631;51.962;5.974;2023-05-20T01:34:51;102286.25;;;11.50;100.00
59757;BME280;45631;51.962;5.974;2023-05-20T01:37:20;102280.00;;;11.53;100.00
59757;BME280;45631;51.962;5.974;2023-05-20T01:39:52;102280.78;;;11.55;100.00
59757;BME280;45631;51.962;5.974;2023-05-20T01:42:22;102279.00;;;11.56;100.00
59757;BME280;45631;51.962;5.974;2023-05-20T01:44:50;102278.16;;;11.55;100.00
59757;BME280;45631;51.962;5.974;2023-05-20T01:47:18;102272.16;;;11.52;100.00
59757;BME280;45631;51.962;5.974;2023-05-20T01:49:46;102267.78;;;11.52;100.00
59757;BME280;45631;51.962;5.974;2023-05-20T01:52:15;102266.97;;;11.50;100.00
59757;BME280;45631;51.962;5.974;2023-05-20T01:54:44;102263.50;;;11.49;100.00
59757;BME280;45631;51.962;5.974;2023-05-20T01:57:18;102266.06;;;11.51;100.00
59757;BME280;45631;51.962;5.974;2023-05-20T01:59:47;102264.19;;;11.53;100.00
59757;BME280;45631;51.962;5.974;2023-05-20T02:02:17;102258.81;;;11.56;100.00
59757;BME280;45631;51.962;5.974;2023-05-20T02:04:47;102266.69;;;11.56;100.00
59757;BME280;45631;51.962;5.974;2023-05-20T02:07:16;102268.38;;;11.57;100.00
59757;BME280;45631;51.962;5.974;2023-05-20T02:09:45;102266.81;;;11.53;100.00
59757;BME280;45631;51.962;5.974;2023-05-20T02:12:14;102268.03;;;11.46;100.00
59757;BME280;45631;51.962;5.974;2023-05-20T02:14:45;102267.91;;;11.49;100.00
59757;BME280;45631;51.962;5.974;2023-05-20T02:17:13;102257.16;;;11.54;100.00
59757;BME280;45631;51.962;5.974;2023-05-20T02:19:45;102264.59;;;11.63;100.00
59757;BME280;45631;51.962;5.974;2023-05-20T02:22:13;102262.63;;;11.49;100.00
59757;BME280;45631;51.962;5.974;2023-05-20T02:24:42;102260.88;;;11.49;100.00
59757;BME280;45631;51.962;5.974;2023-05-20T02:27:10;102261.84;;;11.47;100.00
59757;BME280;45631;51.962;5.974;2023-05-20T02:29:38;102261.56;;;11.53;100.00
59757;BME280;45631;51.962;5.974;2023-05-20T02:32:08;102268.84;;;11.48;100.00
59757;BME280;45631;51.962;5.974;2023-05-20T02:34:37;102262.00;;;11.44;100.00
59757;BME280;45631;51.962;5.974;2023-05-20T02:37:06;102259.41;;;11.42;100.00
59757;BME280;45631;51.962;5.974;2023-05-20T02:39:36;102255.03;;;11.43;100.00
59757;BME280;45631;51.962;5.974;2023-05-20T02:42:04;102252.50;;;11.40;100.00
59757;BME280;45631;51.962;5.974;2023-05-20T02:44:32;102252.59;;;11.38;100.00
59757;BME280;45631;51.962;5.974;2023-05-20T02:47:00;102249.88;;;11.40;100.00
59757;BME280;45631;51.962;5.974;2023-05-20T02:49:30;102246.69;;;11.33;100.00
59757;BME280;45631;51.962;5.974;2023-05-20T02:51:58;102240.63;;;11.31;100.00
59757;BME280;45631;51.962;5.974;2023-05-20T02:54:26;102239.13;;;11.25;100.00
59757;BME280;45631;51.962;5.974;2023-05-20T02:56:54;102237.41;;;11.24;100.00
59757;BME280;45631;51.962;5.974;2023-05-20T02:59:22;102241.91;;;11.22;100.00
59757;BME280;45631;51.962;5.974;2023-05-20T03:01:51;102238.28;;;11.25;100.00
59757;BME280;45631;51.962;5.974;2023-05-20T03:04:19;102239.00;;;11.28;100.00
59757;BME280;45631;51.962;5.974;2023-05-20T03:06:49;102242.63;;;11.26;100.00
59757;BME280;45631;51.962;5.974;2023-05-20T03:09:17;102239.13;;;11.25;100.00
59757;BME280;45631;51.962;5.974;2023-05-20T03:11:47;102243.56;;;11.25;100.00
59757;BME280;45631;51.962;5.974;2023-05-20T03:14:15;102242.97;;;11.18;100.00
59757;BME280;45631;51.962;5.974;2023-05-20T03:16:43;102245.72;;;11.15;100.00
59757;BME280;45631;51.962;5.974;2023-05-20T03:19:12;102247.78;;;11.08;100.00
59757;BME280;45631;51.962;5.974;2023-05-20T03:21:40;102246.72;;;11.12;100.00
59757;BME280;45631;51.962;5.974;2023-05-20T03:24:13;102244.38;;;11.06;100.00
59757;BME280;45631;51.962;5.974;2023-05-20T03:26:41;102242.22;;;10.95;100.00
59757;BME280;45631;51.962;5.974;2023-05-20T03:29:09;102246.00;;;10.90;100.00
59757;BME280;45631;51.962;5.974;2023-05-20T03:31:40;102252.09;;;10.90;100.00
59757;BME280;45631;51.962;5.974;2023-05-20T03:34:09;102249.81;;;10.82;100.00
59757;BME280;45631;51.962;5.974;2023-05-20T03:36:37;102248.09;;;10.81;100.00
59757;BME280;45631;51.962;5.974;2023-05-20T03:39:05;102262.41;;;10.76;100.00
59757;BME280;45631;51.962;5.974;2023-05-20T03:41:35;102247.66;;;10.72;100.00
59757;BME280;45631;51.962;5.974;2023-05-20T03:44:04;102253.69;;;10.74;100.00
59757;BME280;45631;51.962;5.974;2023-05-20T03:46:32;102253.69;;;10.74;100.00
59757;BME280;45631;51.962;5.974;2023-05-20T03:49:00;102254.00;;;10.66;100.00
59757;BME280;45631;51.962;5.974;2023-05-20T03:51:28;102252.19;;;10.68;100.00
59757;BME280;45631;51.962;5.974;2023-05-20T03:53:57;102258.22;;;10.70;100.00
59757;BME280;45631;51.962;5.974;2023-05-20T03:56:25;102252.25;;;10.67;100.00
59757;BME280;45631;51.962;5.974;2023-05-20T03:58:54;102257.00;;;10.58;100.00
59757;BME280;45631;51.962;5.974;2023-05-20T04:01:22;102252.78;;;10.54;100.00
59757;BME280;45631;51.962;5.974;2023-05-20T04:03:51;102249.50;;;10.49;100.00
59757;BME280;45631;51.962;5.974;2023-05-20T04:06:20;102252.19;;;10.47;100.00
59757;BME280;45631;51.962;5.974;2023-05-20T04:08:49;102251.00;;;10.55;100.00
59757;BME280;45631;51.962;5.974;2023-05-20T04:11:18;102246.72;;;10.52;100.00
59757;BME280;45631;51.962;5.974;2023-05-20T04:13:47;102252.97;;;10.49;100.00
59757;BME280;45631;51.962;5.974;2023-05-20T04:16:16;102252.97;;;10.49;100.00
59757;BME280;45631;51.962;5.974;2023-05-20T04:18:47;102254.81;;;10.47;100.00
59757;BME280;45631;51.962;5.974;2023-05-20T04:21:16;102256.47;;;10.50;100.00
59757;BME280;45631;51.962;5.974;2023-05-20T04:23:45;102254.09;;;10.44;100.00
59757;BME280;45631;51.962;5.974;2023-05-20T04:26:13;102254.09;;;10.44;100.00
59757;BME280;45631;51.962;5.974;2023-05-20T04:28:41;102253.16;;;10.45;100.00
59757;BME280;45631;51.962;5.974;2023-05-20T04:31:09;102253.09;;;10.46;100.00
59757;BME280;45631;51.962;5.974;2023-05-20T04:33:39;102252.91;;;10.51;100.00
59757;BME280;45631;51.962;5.974;2023-05-20T04:36:09;102248.66;;;10.48;100.00
59757;BME280;45631;51.962;5.974;2023-05-20T04:38:42;102250.25;;;10.51;100.00
59757;BME280;45631;51.962;5.974;2023-05-20T04:41:10;102247.69;;;10.49;100.00
59757;BME280;45631;51.962;5.974;2023-05-20T04:43:38;102259.88;;;10.52;100.00
59757;BME280;45631;51.962;5.974;2023-05-20T04:46:07;102251.81;;;10.57;100.00
59757;BME280;45631;51.962;5.974;2023-05-20T04:48:39;102257.91;;;10.57;100.00
59757;BME280;45631;51.962;5.974;2023-05-20T04:51:07;102263.78;;;10.64;100.00
59757;BME280;45631;51.962;5.974;2023-05-20T04:53:36;102258.44;;;10.65;100.00
59757;BME280;45631;51.962;5.974;2023-05-20T04:56:04;102255.56;;;10.72;100.00
59757;BME280;45631;51.962;5.974;2023-05-20T04:58:32;102258.19;;;10.72;100.00
59757;BME280;45631;51.962;5.974;2023-05-20T05:01:01;102264.16;;;10.75;100.00
59757;BME280;45631;51.962;5.974;2023-05-20T05:03:29;102262.41;;;10.76;100.00
59757;BME280;45631;51.962;5.974;2023-05-20T05:06:02;102259.63;;;10.79;100.00
59757;BME280;45631;51.962;5.974;2023-05-20T05:08:30;102259.41;;;10.83;100.00
59757;BME280;45631;51.962;5.974;2023-05-20T05:10:58;102258.28;;;10.89;100.00
59757;BME280;45631;51.962;5.974;2023-05-20T05:13:26;102255.47;;;10.94;100.00
59757;BME280;45631;51.962;5.974;2023-05-20T05:15:58;102248.91;;;11.03;100.00
59757;BME280;45631;51.962;5.974;2023-05-20T05:18:26;102255.00;;;11.05;100.00
59757;BME280;45631;51.962;5.974;2023-05-20T05:20:59;102246.88;;;11.09;100.00
59757;BME280;45631;51.962;5.974;2023-05-20T05:23:28;102250.72;;;11.21;100.00
59757;BME280;45631;51.962;5.974;2023-05-20T05:25:57;102251.56;;;11.22;100.00
59757;BME280;45631;51.962;5.974;2023-05-20T05:28:25;102243.13;;;11.34;100.00
59757;BME280;45631;51.962;5.974;2023-05-20T05:30:53;102256.84;;;11.41;100.00
59757;BME280;45631;51.962;5.974;2023-05-20T05:33:22;102254.09;;;11.44;100.00
59757;BME280;45631;51.962;5.974;2023-05-20T05:35:50;102255.38;;;11.54;100.00
59757;BME280;45631;51.962;5.974;2023-05-20T05:38:18;102253.44;;;11.58;100.00
59757;BME280;45631;51.962;5.974;2023-05-20T05:40:48;102252.22;;;11.65;100.00
59757;BME280;45631;51.962;5.974;2023-05-20T05:43:16;102249.25;;;11.73;100.00
59757;BME280;45631;51.962;5.974;2023-05-20T05:45:44;102242.66;;;11.81;100.00
59757;BME280;45631;51.962;5.974;2023-05-20T05:48:12;102248.50;;;11.88;100.00
59757;BME280;45631;51.962;5.974;2023-05-20T05:50:43;102246.50;;;11.93;100.00
59757;BME280;45631;51.962;5.974;2023-05-20T05:53:11;102248.72;;;12.03;100.00
59757;BME280;45631;51.962;5.974;2023-05-20T05:55:39;102249.13;;;12.12;100.00
59757;BME280;45631;51.962;5.974;2023-05-20T05:58:09;102247.72;;;12.23;100.00
59757;BME280;45631;51.962;5.974;2023-05-20T06:00:38;102241.22;;;12.30;100.00
59757;BME280;45631;51.962;5.974;2023-05-20T06:03:06;102242.38;;;12.42;100.00
59757;BME280;45631;51.962;5.974;2023-05-20T06:05:34;102239.97;;;12.55;100.00
59757;BME280;45631;51.962;5.974;2023-05-20T06:08:03;102240.59;;;12.60;100.00
59757;BME280;45631;51.962;5.974;2023-05-20T06:10:31;102241.50;;;12.76;100.00
59757;BME280;45631;51.962;5.974;2023-05-20T06:12:59;102234.88;;;12.85;100.00
59757;BME280;45631;51.962;5.974;2023-05-20T06:15:29;102237.56;;;13.01;100.00
59757;BME280;45631;51.962;5.974;2023-05-20T06:17:57;102237.91;;;13.11;100.00
59757;BME280;45631;51.962;5.974;2023-05-20T06:20:25;102234.78;;;13.20;100.00
59757;BME280;45631;51.962;5.974;2023-05-20T06:22:54;102237.88;;;13.28;100.00
59757;BME280;45631;51.962;5.974;2023-05-20T06:25:22;102227.75;;;13.37;100.00
59757;BME280;45631;51.962;5.974;2023-05-20T06:27:50;102230.41;;;13.52;100.00
59757;BME280;45631;51.962;5.974;2023-05-20T06:30:18;102220.91;;;13.64;100.00
59757;BME280;45631;51.962;5.974;2023-05-20T06:32:51;102212.13;;;13.80;100.00
59757;BME280;45631;51.962;5.974;2023-05-20T06:35:21;102218.78;;;13.87;100.00
59757;BME280;45631;51.962;5.974;2023-05-20T06:37:49;102218.66;;;14.05;100.00
59757;BME280;45631;51.962;5.974;2023-05-20T06:40:17;102218.97;;;14.14;100.00
59757;BME280;45631;51.962;5.974;2023-05-20T06:42:46;102218.34;;;14.25;100.00
59757;BME280;45631;51.962;5.974;2023-05-20T06:45:14;102212.13;;;14.41;100.00
59757;BME280;45631;51.962;5.974;2023-05-20T06:47:42;102220.28;;;14.52;100.00
59757;BME280;45631;51.962;5.974;2023-05-20T06:50:12;102221.44;;;14.62;100.00
59757;BME280;45631;51.962;5.974;2023-05-20T06:52:40;102212.19;;;14.69;100.00
59757;BME280;45631;51.962;5.974;2023-05-20T06:55:09;102213.34;;;14.80;100.00
59757;BME280;45631;51.962;5.974;2023-05-20T06:57:37;102209.63;;;14.97;100.00
59757;BME280;45631;51.962;5.974;2023-05-20T07:00:07;102207.72;;;15.13;100.00
59757;BME280;45631;51.962;5.974;2023-05-20T07:02:35;102201.75;;;15.24;100.00
59757;BME280;45631;51.962;5.974;2023-05-20T07:05:04;102204.59;;;15.35;100.00
59757;BME280;45631;51.962;5.974;2023-05-20T07:07:34;102198.19;;;15.52;100.00
59757;BME280;45631;51.962;5.974;2023-05-20T07:10:04;102201.75;;;15.66;100.00
59757;BME280;45631;51.962;5.974;2023-05-20T07:12:32;102205.50;;;15.76;100.00
59757;BME280;45631;51.962;5.974;2023-05-20T07:15:02;102203.53;;;15.80;100.00
59757;BME280;45631;51.962;5.974;2023-05-20T07:17:31;102205.47;;;15.91;99.64
59757;BME280;45631;51.962;5.974;2023-05-20T07:19:59;102200.59;;;15.97;98.45
59757;BME280;45631;51.962;5.974;2023-05-20T07:22:27;102203.72;;;16.17;98.29
59757;BME280;45631;51.962;5.974;2023-05-20T07:24:57;102202.78;;;16.18;95.32
59757;BME280;45631;51.962;5.974;2023-05-20T07:31:57;102187.06;;;16.53;93.74
59757;BME280;45631;51.962;5.974;2023-05-20T07:34:26;102181.34;;;16.72;94.07
59757;BME280;45631;51.962;5.974;2023-05-20T07:36:57;102179.00;;;16.81;92.30
59757;BME280;45631;51.962;5.974;2023-05-20T07:39:25;102181.78;;;16.92;92.08
59757;BME280;45631;51.962;5.974;2023-05-20T07:41:55;102175.19;;;16.98;91.62
59757;BME280;45631;51.962;5.974;2023-05-20T07:44:23;102179.84;;;17.07;89.25
59757;BME280;45631;51.962;5.974;2023-05-20T07:46:52;102177.69;;;17.12;88.28
59757;BME280;45631;51.962;5.974;2023-05-20T07:49:20;102172.66;;;17.20;88.70
59757;BME280;45631;51.962;5.974;2023-05-20T07:51:48;102173.81;;;17.29;87.52
59757;BME280;45631;51.962;5.974;2023-05-20T07:54:16;102177.16;;;17.44;85.33
59757;BME280;45631;51.962;5.974;2023-05-20T07:56:45;102162.16;;;17.43;84.99
59757;BME280;45631;51.962;5.974;2023-05-20T07:59:14;102161.53;;;17.64;84.73
59757;BME280;45631;51.962;5.974;2023-05-20T08:01:42;102165.25;;;17.85;86.05
59757;BME280;45631;51.962;5.974;2023-05-20T08:04:10;102160.34;;;17.92;81.17
59757;BME280;45631;51.962;5.974;2023-05-20T08:06:39;102147.66;;;17.96;82.04
59757;BME280;45631;51.962;5.974;2023-05-20T08:09:09;102162.81;;;18.06;80.95
59757;BME280;45631;51.962;5.974;2023-05-20T08:11:37;102160.06;;;18.19;80.45
59757;BME280;45631;51.962;5.974;2023-05-20T08:14:05;102164.78;;;18.27;78.23
59757;BME280;45631;51.962;5.974;2023-05-20T08:16:35;102163.47;;;18.44;76.25
59757;BME280;45631;51.962;5.974;2023-05-20T08:19:03;102167.25;;;18.53;77.38
59757;BME280;45631;51.962;5.974;2023-05-20T08:21:31;102155.25;;;18.81;76.54
59757;BME280;45631;51.962;5.974;2023-05-20T08:24:01;102146.53;;;18.79;73.55
59757;BME280;45631;51.962;5.974;2023-05-20T08:26:29;102149.78;;;19.05;75.99
59757;BME280;45631;51.962;5.974;2023-05-20T08:28:57;102150.50;;;19.19;73.97
59757;BME280;45631;51.962;5.974;2023-05-20T08:31:25;102149.88;;;19.27;73.44
59757;BME280;45631;51.962;5.974;2023-05-20T08:33:55;102147.66;;;19.32;70.66
59757;BME280;45631;51.962;5.974;2023-05-20T08:36:23;102158.13;;;19.56;71.92
59757;BME280;45631;51.962;5.974;2023-05-20T08:38:51;102146.41;;;19.47;65.94
59757;BME280;45631;51.962;5.974;2023-05-20T08:41:19;102157.09;;;19.36;67.13
59757;BME280;45631;51.962;5.974;2023-05-20T08:43:49;102141.88;;;19.59;65.06
59757;BME280;45631;51.962;5.974;2023-05-20T08:46:18;102145.56;;;19.47;63.68
59757;BME280;45631;51.962;5.974;2023-05-20T08:48:47;102129.25;;;19.61;63.42
59757;BME280;45631;51.962;5.974;2023-05-20T08:51:19;102145.06;;;19.74;63.18
59757;BME280;45631;51.962;5.974;2023-05-20T08:53:49;102136.84;;;19.77;61.91
59757;BME280;45631;51.962;5.974;2023-05-20T08:56:19;102127.91;;;19.67;61.31
59757;BME280;45631;51.962;5.974;2023-05-20T08:58:49;102116.94;;;19.81;62.84
59757;BME280;45631;51.962;5.974;2023-05-20T09:01:17;102109.00;;;19.91;60.68
59757;BME280;45631;51.962;5.974;2023-05-20T09:03:46;102113.63;;;20.10;61.17
59757;BME280;45631;51.962;5.974;2023-05-20T09:06:17;102130.50;;;20.20;59.64
59757;BME280;45631;51.962;5.974;2023-05-20T09:08:48;102119.63;;;20.33;56.32
59757;BME280;45631;51.962;5.974;2023-05-20T09:11:17;102115.84;;;20.36;56.57
59757;BME280;45631;51.962;5.974;2023-05-20T09:13:45;102117.56;;;20.16;58.78
59757;BME280;45631;51.962;5.974;2023-05-20T09:16:14;102113.56;;;20.31;59.30
59757;BME280;45631;51.962;5.974;2023-05-20T09:18:42;102108.31;;;20.51;57.83
59757;BME280;45631;51.962;5.974;2023-05-20T09:21:11;102109.50;;;20.68;58.11
59757;BME280;45631;51.962;5.974;2023-05-20T09:23:47;102116.63;;;20.98;55.92
59757;BME280;45631;51.962;5.974;2023-05-20T09:26:16;102108.38;;;21.11;55.12
59757;BME280;45631;51.962;5.974;2023-05-20T09:28:45;102106.38;;;21.03;54.54
59757;BME280;45631;51.962;5.974;2023-05-20T09:31:13;102104.72;;;21.22;55.23
59757;BME280;45631;51.962;5.974;2023-05-20T09:33:42;102105.44;;;21.34;53.52
59757;BME280;45631;51.962;5.974;2023-05-20T09:36:14;102100.34;;;21.01;54.11
59757;BME280;45631;51.962;5.974;2023-05-20T09:38:43;102098.50;;;21.02;54.43
59757;BME280;45631;51.962;5.974;2023-05-20T09:41:14;102091.44;;;21.01;55.80
59757;BME280;45631;51.962;5.974;2023-05-20T09:43:43;102099.16;;;20.84;52.74
59757;BME280;45631;51.962;5.974;2023-05-20T09:46:12;102100.13;;;20.73;53.60
59757;BME280;45631;51.962;5.974;2023-05-20T09:48:43;102093.72;;;20.55;53.16
59757;BME280;45631;51.962;5.974;2023-05-20T09:51:12;102093.94;;;20.73;53.86
59757;BME280;45631;51.962;5.974;2023-05-20T09:53:41;102088.91;;;20.49;54.40
59757;BME280;45631;51.962;5.974;2023-05-20T09:56:10;102095.53;;;20.54;53.36
59757;BME280;45631;51.962;5.974;2023-05-20T09:58:41;102090.03;;;20.87;54.62
59757;BME280;45631;51.962;5.974;2023-05-20T10:01:11;102084.88;;;21.15;54.52
59757;BME280;45631;51.962;5.974;2023-05-20T10:03:39;102079.66;;;21.42;52.91
59757;BME280;45631;51.962;5.974;2023-05-20T10:06:24;102082.88;;;21.36;53.12
59757;BME280;45631;51.962;5.974;2023-05-20T10:09:10;102082.19;;;21.24;54.27
59757;BME280;45631;51.962;5.974;2023-05-20T10:11:46;102085.00;;;21.42;54.28
59757;BME280;45631;51.962;5.974;2023-05-20T10:14:37;102071.59;;;21.72;52.71
59757;BME280;45631;51.962;5.974;2023-05-20T10:17:12;102085.59;;;21.66;51.58
59757;BME280;45631;51.962;5.974;2023-05-20T10:19:44;102086.66;;;21.92;52.25
59757;BME280;45631;51.962;5.974;2023-05-20T10:22:12;102068.72;;;22.03;50.94
59757;BME280;45631;51.962;5.974;2023-05-20T10:24:43;102072.75;;;22.17;51.65
59757;BME280;45631;51.962;5.974;2023-05-20T10:27:13;102050.19;;;21.82;51.40
59757;BME280;45631;51.962;5.974;2023-05-20T10:29:44;102054.09;;;22.25;52.06
59757;BME280;45631;51.962;5.974;2023-05-20T10:32:25;102056.25;;;22.21;48.98
59757;BME280;45631;51.962;5.974;2023-05-20T10:34:58;102059.00;;;22.67;49.31
59757;BME280;45631;51.962;5.974;2023-05-20T10:37:28;102070.28;;;22.89;46.65
59757;BME280;45631;51.962;5.974;2023-05-20T10:40:08;102051.81;;;22.68;47.36
59757;BME280;45631;51.962;5.974;2023-05-20T10:42:38;102052.59;;;22.78;47.65
59757;BME280;45631;51.962;5.974;2023-05-20T10:45:11;102057.19;;;22.86;48.33
59757;BME280;45631;51.962;5.974;2023-05-20T10:47:52;102046.41;;;23.13;47.80
59757;BME280;45631;51.962;5.974;2023-05-20T10:50:27;102050.53;;;22.90;45.84
59757;BME280;45631;51.962;5.974;2023-05-20T10:53:02;102044.50;;;23.06;48.53
59757;BME280;45631;51.962;5.974;2023-05-20T10:55:35;102044.94;;;23.01;48.67
59757;BME280;45631;51.962;5.974;2023-05-20T10:58:05;102046.78;;;23.01;47.31
59757;BME280;45631;51.962;5.974;2023-05-20T11:00:35;102036.72;;;23.12;45.52
59757;BME280;45631;51.962;5.974;2023-05-20T11:03:04;102054.00;;;23.36;45.97
59757;BME280;45631;51.962;5.974;2023-05-20T11:05:34;102043.13;;;23.20;45.96
59757;BME280;45631;51.962;5.974;2023-05-20T11:08:04;102047.28;;;23.14;45.65
59757;BME280;45631;51.962;5.974;2023-05-20T11:10:55;102040.94;;;23.15;46.04
59757;BME280;45631;51.962;5.974;2023-05-20T11:13:24;102040.06;;;23.15;46.11
59757;BME280;45631;51.962;5.974;2023-05-20T11:15:54;102038.19;;;22.97;47.79
59757;BME280;45631;51.962;5.974;2023-05-20T11:18:22;102037.88;;;22.82;47.34
59757;BME280;45631;51.962;5.974;2023-05-20T11:20:50;102039.56;;;22.65;45.95
59757;BME280;45631;51.962;5.974;2023-05-20T11:23:20;102019.38;;;22.33;48.75
59757;BME280;45631;51.962;5.974;2023-05-20T11:25:49;102025.00;;;22.50;49.89
59757;BME280;45631;51.962;5.974;2023-05-20T11:28:18;102019.50;;;22.69;46.48
59757;BME280;45631;51.962;5.974;2023-05-20T11:30:47;102014.69;;;22.73;47.87
59757;BME280;45631;51.962;5.974;2023-05-20T11:33:17;102019.81;;;22.66;47.86
59757;BME280;45631;51.962;5.974;2023-05-20T11:35:47;102023.88;;;22.42;45.37
59757;BME280;45631;51.962;5.974;2023-05-20T11:38:16;102024.94;;;22.22;46.04
59757;BME280;45631;51.962;5.974;2023-05-20T11:40:49;102024.50;;;22.36;47.91
59757;BME280;45631;51.962;5.974;2023-05-20T11:43:18;102024.06;;;22.59;46.60
59757;BME280;45631;51.962;5.974;2023-05-20T11:45:51;102016.66;;;22.71;46.75
59757;BME280;45631;51.962;5.974;2023-05-20T11:48:22;102018.50;;;22.70;46.04
59757;BME280;45631;51.962;5.974;2023-05-20T11:50:53;102019.91;;;22.47;46.55
59757;BME280;45631;51.962;5.974;2023-05-20T11:53:22;102015.09;;;22.22;47.34
59757;BME280;45631;51.962;5.974;2023-05-20T11:55:52;102007.31;;;22.57;49.34
59757;BME280;45631;51.962;5.974;2023-05-20T11:58:22;102008.94;;;22.86;47.65
59757;BME280;45631;51.962;5.974;2023-05-20T12:00:50;102012.28;;;22.70;45.86
59757;BME280;45631;51.962;5.974;2023-05-20T12:03:32;102003.88;;;22.83;45.84
59757;BME280;45631;51.962;5.974;2023-05-20T12:06:01;102014.28;;;22.86;45.40
59757;BME280;45631;51.962;5.974;2023-05-20T12:08:29;101994.81;;;22.84;46.16
59757;BME280;45631;51.962;5.974;2023-05-20T12:10:57;101997.22;;;22.87;46.77
59757;BME280;45631;51.962;5.974;2023-05-20T12:13:25;102001.59;;;22.88;45.63
59757;BME280;45631;51.962;5.974;2023-05-20T12:15:53;101996.50;;;23.03;45.71
59757;BME280;45631;51.962;5.974;2023-05-20T12:18:22;101991.84;;;22.87;46.63
59757;BME280;45631;51.962;5.974;2023-05-20T12:20:51;101986.31;;;22.88;46.57
59757;BME280;45631;51.962;5.974;2023-05-20T12:23:19;101992.16;;;23.02;45.87
59757;BME280;45631;51.962;5.974;2023-05-20T12:25:48;101976.50;;;22.97;46.94
59757;BME280;45631;51.962;5.974;2023-05-20T12:28:16;101983.66;;;22.88;47.86
59757;BME280;45631;51.962;5.974;2023-05-20T12:30:45;101983.41;;;22.82;46.08
59757;BME280;45631;51.962;5.974;2023-05-20T12:33:13;101982.19;;;22.76;46.48
59757;BME280;45631;51.962;5.974;2023-05-20T12:35:42;101983.78;;;22.51;47.58
59757;BME280;45631;51.962;5.974;2023-05-20T12:38:13;101985.47;;;22.24;48.66
59757;BME280;45631;51.962;5.974;2023-05-20T12:40:41;101974.81;;;22.42;49.10
59757;BME280;45631;51.962;5.974;2023-05-20T12:43:09;101965.41;;;22.56;50.83
59757;BME280;45631;51.962;5.974;2023-05-20T12:45:37;101966.09;;;22.76;48.67
59757;BME280;45631;51.962;5.974;2023-05-20T12:48:06;101963.03;;;22.89;48.94
59757;BME280;45631;51.962;5.974;2023-05-20T12:50:34;101952.84;;;22.92;47.71
59757;BME280;45631;51.962;5.974;2023-05-20T12:53:03;101945.41;;;23.04;47.79
59757;BME280;45631;51.962;5.974;2023-05-20T12:55:35;101949.00;;;22.95;48.24
59757;BME280;45631;51.962;5.974;2023-05-20T12:58:04;101942.06;;;23.28;48.39
59757;BME280;45631;51.962;5.974;2023-05-20T13:00:34;101940.53;;;23.26;46.27